CYAZ/YAZ METAR and TAF weather

Enter ICAO airport designator
Station Type Date Time Source
CYAZ METAR 2022/12/05 15:00 UTC NOAA

CYAZ 051500Z VRB02KT 15SM OVC031 02/01 A3001 RMK SC8 SLP166


Station Type Date Time Source
CYAZ Decoded METAR 2022/12/05 15:00 UTC NOAA

Tofino Airport, Canada (CYAZ) 49-05N 125-46W
Dec 05, 2022 - 10:00 AM EST / 2022.12.05 1500 UTC
Wind: Variable at 2 MPH (2 KT):0
Visibility: 15 mile(s):0
Sky conditions: overcast
Temperature: 35 F (2 C)
Dew Point: 33 F (1 C)
Relative Humidity: 93%
Pressure (altimeter): 30.01 in. Hg (1016 hPa)
ob: CYAZ 051500Z VRB02KT 15SM OVC031 02/01 A3001 RMK SC8 SLP166
cycle: 15

Station Type Date Time Source
CYAZ TAF 2022/12/04 19:00 UTC NOAA

TAF CYAZ 041840Z 0419/0501 VRB03KT P6SM FEW020
RMK NXT FCST BY 051700Z

Example: see airport list